AirportContent of METAR report
LYBEMETAR LYBE 100300Z 12003KT CAVOK 18/15 Q1017 NOSIG=
LYBTMETAR LYBT 100300Z 04003KT CAVOK 14/13 Q1017 NOSIG=
LYKVMETAR LYKV 100300Z 00000KT CAVOK 13/13 Q1018 NOSIG=
LYNIMETAR LYNI 100300Z VRB02KT CAVOK 14/13 Q1019 NOSIG=
LYVRMETAR LYVR 100300Z AUTO VRB03KT CAVOK 19/14 Q1017=
LYUZMETAR LYUZ 100300Z AUTO 00000KT CAVOK 14/11 Q1021=
LYPGMETAR LYPG 100300Z VRB02KT CAVOK 22/11 Q1015 NOSIG=
LYTVMETAR LYTV 100300Z VRB01KT CAVOK 14/12 Q1015 NOSIG=

Data loaded: 2020-07-10 03:12:35 UTC

METAR, TAF, AIRMET, GAMET, SIGMET

Important note: MET information on these web pages are informative and restricted to aeronautical users, must not be used for any commercial purpose, and do not replace flight documentation.